createdAt,value
2022-10-06T00:02:32.744Z,10.90
2022-10-06T00:05:04.996Z,3.05
2022-10-06T00:07:38.635Z,0.73
2022-10-06T00:10:12.315Z,1.05
2022-10-06T00:12:46.036Z,0.88
2022-10-06T00:15:21.157Z,1.77
2022-10-06T00:17:56.541Z,1.70
2022-10-06T00:20:29.957Z,1.00
2022-10-06T00:23:02.436Z,0.52
2022-10-06T00:25:34.485Z,1.00
2022-10-06T00:28:06.884Z,1.80
2022-10-06T00:30:38.956Z,4.28
2022-10-06T00:33:19.445Z,2.95
2022-10-06T00:35:58.996Z,1.08
2022-10-06T00:38:31.821Z,1.42
2022-10-06T00:41:04.357Z,1.55
2022-10-06T00:43:48.117Z,1.40
2022-10-06T00:46:26.554Z,0.85
2022-10-06T00:49:09.120Z,1.05
2022-10-06T00:51:46.005Z,1.90
2022-10-06T00:54:19.835Z,1.00
2022-10-06T00:56:52.155Z,2.50
2022-10-06T00:59:24.555Z,0.88
2022-10-06T01:02:00.276Z,1.25
2022-10-06T01:04:39.635Z,2.42
2022-10-06T01:07:11.836Z,1.10
2022-10-06T01:09:44.436Z,3.38
2022-10-06T01:12:17.357Z,2.22
2022-10-06T01:14:49.884Z,2.45
2022-10-06T01:17:25.355Z,1.17
2022-10-06T01:20:03.476Z,1.48
2022-10-06T01:22:40.317Z,0.98
2022-10-06T01:25:15.117Z,1.00
2022-10-06T01:27:51.716Z,5.30
2022-10-06T01:30:28.318Z,1.85
2022-10-06T01:33:00.235Z,0.82
2022-10-06T01:35:32.359Z,0.82
2022-10-06T01:38:07.116Z,0.95
2022-10-06T01:40:39.236Z,1.92
2022-10-06T01:43:11.285Z,2.55
2022-10-06T01:45:43.275Z,0.60
2022-10-06T01:48:15.116Z,0.82
2022-10-06T01:50:47.198Z,14.18
2022-10-06T01:53:21.916Z,1.50
2022-10-06T01:55:54.116Z,1.33
2022-10-06T01:58:26.151Z,0.77
2022-10-06T02:00:58.596Z,2.00
2022-10-06T02:03:30.600Z,1.55
2022-10-06T02:06:02.805Z,2.83
2022-10-06T02:08:38.117Z,1.63
2022-10-06T02:11:12.401Z,2.15
2022-10-06T02:13:44.677Z,3.33
2022-10-06T02:16:17.000Z,0.98
2022-10-06T02:18:48.835Z,1.17
2022-10-06T02:21:23.396Z,3.25
2022-10-06T02:23:58.035Z,1.38
2022-10-06T02:26:30.398Z,1.27
2022-10-06T02:29:02.435Z,11.80
2022-10-06T02:31:34.674Z,0.75
2022-10-06T02:34:06.877Z,1.70
2022-10-06T02:36:39.036Z,0.43
2022-10-06T02:39:14.076Z,0.88
2022-10-06T02:41:46.875Z,0.85
2022-10-06T02:44:19.118Z,1.30
2022-10-06T02:46:52.588Z,2.35
2022-10-06T02:49:24.324Z,1.25
2022-10-06T02:51:56.485Z,1.00
2022-10-06T02:54:30.996Z,1.20
2022-10-06T02:57:03.115Z,2.10
2022-10-06T02:59:35.517Z,1.35
2022-10-06T03:02:08.101Z,1.00
2022-10-06T03:04:40.414Z,0.50
2022-10-06T03:07:12.755Z,1.52
2022-10-06T03:09:47.595Z,0.85
2022-10-06T03:12:20.029Z,0.57
2022-10-06T03:14:52.525Z,0.80
2022-10-06T03:17:24.599Z,1.88
2022-10-06T03:19:57.198Z,1.10
2022-10-06T03:22:29.797Z,1.77
2022-10-06T03:25:04.564Z,2.22
2022-10-06T03:27:37.198Z,0.95
2022-10-06T03:30:11.035Z,0.95
2022-10-06T03:32:43.365Z,1.05
2022-10-06T03:35:15.638Z,1.45
2022-10-06T03:37:48.077Z,1.05
2022-10-06T03:40:22.880Z,0.90
2022-10-06T03:42:55.325Z,2.72
2022-10-06T03:45:27.538Z,1.27
2022-10-06T03:48:00.716Z,1.70
2022-10-06T03:50:32.877Z,5.75
2022-10-06T03:53:05.558Z,0.60
2022-10-06T03:55:40.275Z,2.03
2022-10-06T03:58:12.838Z,0.68
2022-10-06T04:00:46.687Z,1.05
2022-10-06T04:03:23.165Z,1.17
2022-10-06T04:06:00.075Z,1.27
2022-10-06T04:08:33.955Z,9.32
2022-10-06T04:11:14.724Z,1.10
2022-10-06T04:13:48.395Z,0.50
2022-10-06T04:16:22.882Z,0.80
2022-10-06T04:19:03.518Z,0.73
2022-10-06T04:21:38.796Z,2.60
2022-10-06T04:24:12.876Z,5.25
2022-10-06T04:26:50.276Z,0.93
2022-10-06T04:29:22.914Z,1.88
2022-10-06T04:31:55.202Z,0.30
2022-10-06T04:34:28.395Z,0.50
2022-10-06T04:37:00.595Z,0.30
2022-10-06T04:39:33.115Z,0.38
2022-10-06T04:42:08.076Z,0.35
2022-10-06T04:44:40.646Z,0.40
2022-10-06T04:47:12.758Z,0.63
2022-10-06T04:49:45.118Z,1.05
2022-10-06T04:52:17.844Z,1.00
2022-10-06T04:54:50.197Z,1.92
2022-10-06T04:57:25.165Z,1.08
2022-10-06T05:00:14.629Z,0.32
2022-10-06T05:02:47.356Z,0.88
2022-10-06T05:05:20.036Z,0.43
2022-10-06T05:07:52.524Z,0.47
2022-10-06T05:10:25.036Z,0.77
2022-10-06T05:12:59.917Z,0.20
2022-10-06T05:15:32.478Z,0.35
2022-10-06T05:18:04.716Z,3.08
2022-10-06T05:20:37.277Z,0.38
2022-10-06T05:23:10.918Z,1.42
2022-10-06T05:25:43.276Z,0.20
2022-10-06T05:28:21.191Z,0.30
2022-10-06T05:31:00.126Z,0.30
2022-10-06T05:33:34.405Z,0.40
2022-10-06T05:36:10.165Z,0.38
2022-10-06T05:38:43.287Z,0.80
2022-10-06T05:41:17.527Z,0.63
2022-10-06T05:43:52.519Z,0.50
2022-10-06T05:46:33.396Z,0.20
2022-10-06T05:49:07.481Z,0.52
2022-10-06T05:51:41.756Z,0.68
2022-10-06T05:54:14.602Z,0.15
2022-10-06T05:56:47.212Z,0.65
2022-10-06T05:59:22.359Z,0.20
2022-10-06T06:01:55.417Z,0.30
2022-10-06T06:04:27.717Z,0.47
2022-10-06T06:07:00.201Z,0.30
2022-10-06T06:09:32.596Z,0.50
2022-10-06T06:12:05.320Z,0.95
2022-10-06T06:14:52.450Z,2.58
2022-10-06T06:17:28.757Z,0.20
2022-10-06T06:20:00.917Z,0.20
2022-10-06T06:22:33.438Z,0.30
2022-10-06T06:25:05.718Z,0.20
2022-10-06T06:27:39.479Z,0.30
2022-10-06T06:30:17.237Z,0.30
2022-10-06T06:32:50.276Z,0.65
2022-10-06T06:35:22.595Z,0.20
2022-10-06T06:37:55.275Z,0.22
2022-10-06T06:40:27.598Z,0.38
2022-10-06T06:43:00.038Z,7.72
2022-10-06T06:45:34.957Z,0.40
2022-10-06T06:48:08.006Z,0.20
2022-10-06T06:50:40.325Z,0.50
2022-10-06T06:53:16.153Z,0.40
2022-10-06T06:55:53.035Z,0.20
2022-10-06T06:58:25.608Z,0.30
2022-10-06T07:01:08.164Z,0.60
2022-10-06T07:03:58.055Z,0.55
2022-10-06T07:06:32.598Z,4.07
2022-10-06T07:09:05.120Z,0.50
2022-10-06T07:11:38.956Z,0.20
2022-10-06T07:14:13.518Z,0.63
2022-10-06T07:17:00.557Z,0.22
2022-10-06T07:19:45.196Z,0.30
2022-10-06T07:22:33.275Z,0.35
2022-10-06T07:25:15.356Z,3.63
2022-10-06T07:27:51.315Z,0.30
2022-10-06T07:30:26.157Z,0.50
2022-10-06T07:33:01.077Z,0.50
2022-10-06T07:35:33.717Z,0.50
2022-10-06T07:38:08.268Z,2.08
2022-10-06T07:40:46.187Z,0.40
2022-10-06T07:43:48.277Z,2.28
2022-10-06T07:46:20.976Z,2.20
2022-10-06T07:48:55.959Z,0.73
2022-10-06T07:51:28.646Z,1.08
2022-10-06T07:54:00.962Z,0.20
2022-10-06T07:56:33.639Z,0.77
2022-10-06T07:59:06.238Z,0.57
2022-10-06T08:01:38.926Z,1.33
2022-10-06T08:04:13.961Z,0.77
2022-10-06T08:06:47.881Z,2.60
2022-10-06T08:09:21.084Z,0.95
2022-10-06T08:11:53.613Z,2.25
2022-10-06T08:14:25.878Z,1.45
2022-10-06T08:16:59.277Z,2.83
2022-10-06T08:19:51.597Z,0.30
2022-10-06T08:22:27.718Z,2.53
2022-10-06T08:25:08.519Z,0.98
2022-10-06T08:27:44.440Z,0.30
2022-10-06T08:30:17.359Z,0.40
2022-10-06T08:32:50.238Z,1.25
2022-10-06T08:35:25.206Z,3.25
2022-10-06T08:37:57.716Z,0.60
2022-10-06T08:40:30.835Z,3.95
2022-10-06T08:43:05.557Z,0.40
2022-10-06T08:45:43.491Z,0.35
2022-10-06T08:48:20.319Z,1.17
2022-10-06T08:51:06.838Z,0.50
2022-10-06T08:53:47.200Z,0.30
2022-10-06T08:56:27.361Z,1.13
2022-10-06T08:59:04.558Z,0.65
2022-10-06T09:01:45.308Z,4.20
2022-10-06T09:04:26.759Z,4.13
2022-10-06T09:07:11.344Z,0.25
2022-10-06T09:10:07.761Z,1.50
2022-10-06T09:12:45.600Z,1.23
2022-10-06T09:15:36.216Z,0.45
2022-10-06T09:18:15.812Z,2.38
2022-10-06T09:20:54.357Z,1.48
2022-10-06T09:23:46.414Z,2.13
2022-10-06T09:26:22.641Z,0.35
2022-10-06T09:28:56.039Z,1.48
2022-10-06T09:31:30.466Z,0.95
2022-10-06T09:34:07.683Z,0.43
2022-10-06T09:37:03.174Z,0.65
2022-10-06T09:39:39.759Z,2.92
2022-10-06T09:42:18.559Z,1.05
2022-10-06T09:45:00.477Z,2.28
2022-10-06T09:47:45.384Z,4.30
2022-10-06T09:50:26.518Z,1.88
2022-10-06T09:53:17.081Z,8.88
2022-10-06T09:55:55.896Z,1.55
2022-10-06T09:58:38.056Z,0.73
2022-10-06T10:01:11.601Z,2.75
2022-10-06T10:04:22.103Z,1.48
2022-10-06T10:06:44.104Z,0.20
2022-10-06T10:09:32.456Z,0.57
2022-10-06T10:12:30.296Z,0.40
2022-10-06T10:15:05.434Z,0.45
2022-10-06T10:17:50.075Z,3.10
2022-10-06T10:20:34.557Z,0.30
2022-10-06T10:23:23.386Z,1.33
2022-10-06T10:26:18.600Z,3.70
2022-10-06T10:29:33.014Z,0.95
2022-10-06T10:32:15.673Z,12.43
2022-10-06T10:35:12.354Z,0.70
2022-10-06T10:37:51.593Z,0.82
2022-10-06T10:40:39.117Z,0.30
2022-10-06T10:43:21.835Z,5.13
2022-10-06T10:46:01.801Z,1.10
2022-10-06T10:48:38.876Z,0.45
2022-10-06T10:51:16.403Z,0.30
2022-10-06T10:53:53.157Z,6.47
2022-10-06T10:56:29.516Z,7.80
2022-10-06T10:59:08.752Z,1.13
2022-10-06T11:01:51.965Z,2.33
2022-10-06T11:04:24.113Z,6.22
2022-10-06T11:07:23.716Z,0.55
2022-10-06T11:10:04.996Z,0.30
2022-10-06T11:12:56.313Z,0.82
2022-10-06T11:15:45.154Z,0.20
2022-10-06T11:18:30.954Z,0.57
2022-10-06T11:21:11.113Z,1.50
2022-10-06T11:23:54.914Z,0.47
2022-10-06T11:26:52.440Z,0.50
2022-10-06T11:29:35.157Z,0.35
2022-10-06T11:32:20.515Z,6.70
2022-10-06T11:34:56.034Z,0.65
2022-10-06T11:37:39.198Z,1.38
2022-10-06T11:40:34.953Z,2.67
2022-10-06T11:43:17.409Z,0.60
2022-10-06T11:46:00.390Z,1.08
2022-10-06T11:48:35.037Z,0.30
2022-10-06T11:51:34.033Z,0.30
2022-10-06T11:54:06.594Z,0.35
2022-10-06T11:56:42.602Z,1.25
2022-10-06T11:59:28.756Z,0.20
2022-10-06T12:02:05.214Z,1.83
2022-10-06T12:04:37.842Z,1.65
2022-10-06T12:07:13.352Z,4.38
2022-10-06T12:09:52.977Z,4.78
2022-10-06T12:13:31.722Z,5.90
2022-10-06T12:17:06.047Z,0.88
2022-10-06T12:19:23.993Z,2.55
2022-10-06T12:22:04.194Z,0.70
2022-10-06T12:24:46.234Z,2.00
2022-10-06T12:27:33.876Z,1.88
2022-10-06T12:30:17.993Z,2.97
2022-10-06T12:32:56.159Z,0.35
2022-10-06T12:35:34.677Z,3.40
2022-10-06T12:38:07.921Z,0.20
2022-10-06T12:40:51.997Z,0.43
2022-10-06T12:43:34.800Z,1.02
2022-10-06T12:46:16.660Z,3.60
2022-10-06T12:49:06.080Z,3.40
2022-10-06T12:51:41.835Z,3.58
2022-10-06T12:54:20.680Z,6.03
2022-10-06T12:57:03.712Z,1.40
2022-10-06T12:59:41.152Z,2.80
2022-10-06T13:02:21.473Z,0.63
2022-10-06T13:05:09.995Z,0.32
2022-10-06T13:08:02.995Z,0.73
2022-10-06T13:10:36.214Z,0.40
2022-10-06T13:13:24.715Z,1.85
2022-10-06T13:16:00.873Z,1.40
2022-10-06T13:18:34.276Z,7.35
2022-10-06T13:21:06.837Z,3.92
2022-10-06T13:23:41.475Z,3.03
2022-10-06T13:26:23.753Z,0.63
2022-10-06T13:29:00.194Z,7.15
2022-10-06T13:31:34.913Z,1.00
2022-10-06T13:34:09.512Z,0.38
2022-10-06T13:36:43.552Z,0.90
2022-10-06T13:39:17.713Z,0.75
2022-10-06T13:41:53.298Z,0.38
2022-10-06T13:44:39.357Z,0.28
2022-10-06T13:47:19.514Z,3.20
2022-10-06T13:49:57.441Z,0.82
2022-10-06T13:52:37.283Z,0.88
2022-10-06T13:55:20.712Z,0.20
2022-10-06T13:57:54.526Z,4.78
2022-10-06T14:00:33.673Z,1.67
2022-10-06T14:03:23.610Z,1.35
2022-10-06T14:06:09.436Z,0.28
2022-10-06T14:08:42.519Z,4.85
2022-10-06T14:11:15.034Z,0.28
2022-10-06T14:13:54.636Z,0.20
2022-10-06T14:16:30.954Z,0.60
2022-10-06T14:19:05.726Z,0.22
2022-10-06T14:21:42.807Z,0.20
2022-10-06T14:24:28.603Z,1.00
2022-10-06T14:27:05.162Z,0.45
2022-10-06T14:29:38.205Z,0.30
2022-10-06T14:32:17.401Z,2.95
2022-10-06T14:34:49.995Z,4.07
2022-10-06T14:37:22.241Z,0.50
2022-10-06T14:39:56.413Z,0.32
2022-10-06T14:42:28.851Z,0.52
2022-10-06T14:45:01.689Z,3.67
2022-10-06T14:55:41.243Z,6.35
2022-10-06T14:58:14.083Z,9.43
2022-10-06T15:00:47.003Z,10.73
2022-10-06T15:03:19.324Z,11.85
2022-10-06T15:06:03.441Z,9.93
2022-10-06T15:08:35.804Z,6.68
2022-10-06T15:11:10.403Z,11.88
2022-10-06T15:13:42.521Z,11.98
2022-10-06T15:16:14.479Z,7.65
2022-10-06T15:18:47.322Z,8.30
2022-10-06T15:21:19.561Z,6.75
2022-10-06T15:23:52.405Z,7.00
2022-10-06T15:26:39.441Z,6.20
2022-10-06T15:29:11.785Z,12.13
2022-10-06T15:31:44.969Z,5.43
2022-10-06T15:34:18.194Z,7.00
2022-10-06T15:36:52.792Z,9.52
2022-10-06T15:39:26.910Z,10.20
2022-10-06T15:42:02.222Z,5.38
2022-10-06T15:44:36.792Z,10.20
2022-10-06T15:47:10.311Z,7.55
2022-10-06T15:49:42.479Z,8.57
2022-10-06T15:52:17.999Z,9.57
2022-10-06T15:54:50.322Z,7.05
2022-10-06T15:57:25.698Z,11.48
2022-10-06T15:59:58.095Z,7.95
2022-10-06T16:02:35.728Z,10.10
2022-10-06T16:05:45.376Z,10.90
2022-10-06T16:08:17.299Z,7.85
2022-10-06T16:10:53.296Z,10.50
2022-10-06T16:13:27.774Z,9.73
2022-10-06T16:16:00.750Z,7.60
2022-10-06T16:18:34.693Z,10.40
2022-10-06T16:21:06.933Z,6.93
2022-10-06T16:23:38.772Z,8.68
2022-10-06T16:26:11.136Z,7.80
2022-10-06T16:29:00.174Z,14.18
2022-10-06T16:31:51.315Z,11.90
2022-10-06T16:34:23.537Z,8.82
2022-10-06T16:36:55.651Z,12.52
2022-10-06T16:39:27.735Z,7.85
2022-10-06T16:41:59.933Z,11.90
2022-10-06T16:44:34.532Z,12.30
2022-10-06T16:47:06.902Z,8.23
2022-10-06T16:49:38.773Z,14.32
2022-10-06T16:52:11.029Z,9.20
2022-10-06T16:54:42.896Z,12.60
2022-10-06T16:57:15.172Z,16.13
2022-10-06T16:59:49.696Z,14.68
2022-10-06T17:02:22.214Z,13.27
2022-10-06T17:04:54.573Z,13.73
2022-10-06T17:07:26.892Z,9.80
2022-10-06T17:10:18.874Z,13.43
2022-10-06T17:12:50.725Z,13.00
2022-10-06T17:15:25.226Z,13.82
2022-10-06T17:17:57.727Z,14.90
2022-10-06T17:20:29.565Z,10.20
2022-10-06T17:23:01.647Z,13.45
2022-10-06T17:25:34.495Z,11.10
2022-10-06T17:28:07.138Z,10.10
2022-10-06T17:30:41.990Z,10.07
2022-10-06T17:33:14.544Z,13.70
2022-10-06T17:35:46.577Z,13.75
2022-10-06T17:38:19.123Z,18.17
2022-10-06T17:40:51.166Z,15.23
2022-10-06T17:43:23.472Z,16.77
2022-10-06T17:45:58.270Z,11.25
2022-10-06T17:48:30.768Z,11.52
2022-10-06T17:51:03.424Z,14.80
2022-10-06T17:53:36.523Z,13.90
2022-10-06T17:56:10.484Z,11.82
2022-10-06T17:58:44.323Z,10.20
2022-10-06T18:01:20.416Z,13.27
2022-10-06T18:03:55.666Z,13.35
2022-10-06T18:06:29.928Z,12.25
2022-10-06T18:09:03.163Z,13.45
2022-10-06T18:11:40.084Z,11.73
2022-10-06T18:14:14.425Z,10.60
2022-10-06T18:16:55.709Z,14.57
2022-10-06T18:19:30.928Z,16.70
2022-10-06T18:22:05.117Z,14.85
2022-10-06T18:24:38.273Z,15.88
2022-10-06T18:27:14.104Z,12.57
2022-10-06T18:29:46.512Z,13.65
2022-10-06T18:33:59.425Z,12.73
2022-10-06T18:38:05.553Z,14.50
2022-10-06T18:40:37.925Z,17.60
2022-10-06T18:43:10.028Z,20.27
2022-10-06T18:45:54.774Z,12.88
2022-10-06T18:48:42.024Z,18.10
2022-10-06T18:51:14.506Z,13.45
2022-10-06T18:53:46.646Z,15.75
2022-10-06T18:56:20.563Z,15.05
2022-10-06T18:58:52.725Z,14.93
2022-10-06T19:01:26.418Z,19.77
2022-10-06T19:04:05.166Z,14.70
2022-10-06T19:06:37.743Z,14.32
2022-10-06T19:09:10.185Z,18.25
2022-10-06T19:11:50.709Z,15.45
2022-10-06T19:14:25.384Z,18.90
2022-10-06T19:16:59.433Z,18.88
2022-10-06T19:19:35.403Z,13.73
2022-10-06T19:22:10.143Z,14.57
2022-10-06T19:24:44.846Z,15.48
2022-10-06T19:27:21.045Z,15.48
2022-10-06T19:29:57.086Z,15.05
2022-10-06T19:32:32.620Z,12.95
2022-10-06T19:35:10.348Z,16.70
2022-10-06T19:37:43.707Z,15.88
2022-10-06T19:40:15.984Z,12.55
2022-10-06T19:42:49.056Z,13.27
2022-10-06T19:45:21.409Z,16.20
2022-10-06T19:47:54.050Z,19.75
2022-10-06T19:50:28.845Z,16.80
2022-10-06T19:53:01.592Z,16.42
2022-10-06T19:55:33.864Z,13.00
2022-10-06T19:58:06.185Z,14.35
2022-10-06T20:00:39.225Z,14.88
2022-10-06T20:03:12.165Z,15.27
2022-10-06T20:05:46.903Z,14.35
2022-10-06T20:08:20.893Z,13.30
2022-10-06T20:10:53.013Z,14.15
2022-10-06T20:13:25.285Z,16.38
2022-10-06T20:15:57.332Z,16.85
2022-10-06T20:18:30.031Z,13.10
2022-10-06T20:21:05.024Z,14.95
2022-10-06T20:23:37.544Z,16.73
2022-10-06T20:26:14.684Z,18.27
2022-10-06T20:28:47.655Z,14.63
2022-10-06T20:31:22.913Z,14.82
2022-10-06T20:33:58.484Z,15.40
2022-10-06T20:36:35.231Z,17.83
2022-10-06T20:39:21.725Z,15.55
2022-10-06T20:41:55.845Z,15.05
2022-10-06T20:44:28.385Z,12.75
2022-10-06T20:47:00.445Z,15.82
2022-10-06T20:49:33.203Z,16.42
2022-10-06T20:52:10.264Z,15.55
2022-10-06T20:54:42.712Z,15.68
2022-10-06T20:57:15.045Z,14.88
2022-10-06T20:59:49.526Z,15.70
2022-10-06T21:02:21.644Z,18.70
2022-10-06T21:04:54.562Z,13.75
2022-10-06T21:07:29.663Z,13.82
2022-10-06T21:10:02.086Z,14.57
2022-10-06T21:12:36.964Z,12.48
2022-10-06T21:15:10.543Z,13.82
2022-10-06T21:17:44.477Z,15.18
2022-10-06T21:20:16.984Z,15.82
2022-10-06T21:22:52.922Z,17.00
2022-10-06T21:25:25.311Z,13.35
2022-10-06T21:28:13.271Z,12.07
2022-10-06T21:30:56.826Z,11.40
2022-10-06T21:33:29.365Z,14.32
2022-10-06T21:36:02.945Z,13.82
2022-10-06T21:38:41.131Z,14.02
2022-10-06T21:41:26.083Z,14.75
2022-10-06T21:43:58.625Z,12.18
2022-10-06T21:46:33.359Z,13.63
2022-10-06T21:49:07.064Z,15.50
2022-10-06T21:51:39.846Z,14.13
2022-10-06T21:54:15.548Z,12.90
2022-10-06T21:56:48.626Z,14.88
2022-10-06T21:59:21.103Z,14.43
2022-10-06T22:01:53.544Z,12.55
2022-10-06T22:04:25.643Z,16.88
2022-10-06T22:06:58.102Z,13.90
2022-10-06T22:09:33.023Z,15.13
2022-10-06T22:12:05.245Z,19.95
2022-10-06T22:14:37.204Z,17.75
2022-10-06T22:17:09.523Z,16.35
2022-10-06T22:19:41.723Z,23.10
2022-10-06T22:22:14.042Z,15.48
2022-10-06T22:27:52.584Z,16.38
2022-10-06T22:30:24.712Z,16.05
2022-10-06T22:32:57.044Z,12.35
2022-10-06T22:35:29.305Z,13.15
2022-10-06T22:38:01.690Z,16.85
2022-10-06T22:40:37.422Z,15.90
2022-10-06T22:43:09.750Z,11.90
2022-10-06T22:45:41.703Z,15.95
2022-10-06T22:48:14.023Z,14.43
2022-10-06T22:50:46.141Z,22.55
2022-10-06T22:53:18.642Z,12.38
2022-10-06T22:55:53.864Z,14.80
2022-10-06T22:58:26.382Z,16.80
2022-10-06T23:00:59.493Z,14.02
2022-10-06T23:03:32.569Z,15.68
2022-10-06T23:06:04.862Z,16.92
2022-10-06T23:08:37.703Z,20.38
2022-10-06T23:11:14.422Z,14.77
2022-10-06T23:13:48.882Z,14.13
2022-10-06T23:16:22.488Z,15.80
2022-10-06T23:18:55.883Z,17.92
2022-10-06T23:21:28.482Z,15.27
2022-10-06T23:24:03.362Z,17.90
2022-10-06T23:26:37.981Z,16.58
2022-10-06T23:29:10.244Z,12.45
2022-10-06T23:31:42.341Z,19.23
2022-10-06T23:34:14.802Z,15.93
2022-10-06T23:36:46.921Z,15.85
2022-10-06T23:39:19.604Z,21.08
2022-10-06T23:41:54.509Z,13.55
2022-10-06T23:44:27.342Z,17.05
2022-10-06T23:46:59.381Z,14.52
2022-10-06T23:49:33.704Z,16.77
2022-10-06T23:52:05.902Z,16.25
2022-10-06T23:54:38.361Z,13.10
2022-10-06T23:57:12.982Z,12.65
2022-10-06T23:59:45.383Z,18.35
